Time;durP1;ratioP1;P1;durP2;ratioP2;P2;SDS_P1;SDS_P2;PMS_P1;PMS_P2;Temp;Humidity;BMP_temperature;BMP_pressure;BME280_temperature;BME280_humidity;BME280_pressure;Samples;Min_cycle;Max_cycle;Signal;HPM_P1;HPM_P2
2022/07/22 00:01:27;;;;;;;9.38;5.60;;;;;;;25.20;100.00;100933.91;4957244;29;20389;-73
2022/07/22 00:04:13;;;;;;;7.60;5.47;;;;;;;25.23;100.00;100933.69;4957657;28;20106;-74
2022/07/22 00:06:59;;;;;;;8.38;5.63;;;;;;;25.04;100.00;100936.00;4958548;29;20031;-74
2022/07/22 00:09:45;;;;;;;7.88;5.10;;;;;;;25.23;100.00;100934.53;4957759;29;20035;-74
2022/07/22 00:12:30;;;;;;;9.05;5.35;;;;;;;25.04;100.00;100934.16;4957736;29;20046;-75
2022/07/22 00:15:16;;;;;;;9.88;5.55;;;;;;;25.11;100.00;100932.75;4944215;29;20041;-75
2022/07/22 00:18:02;;;;;;;12.73;5.53;;;;;;;24.91;100.00;100928.00;4957929;29;20023;-74
2022/07/22 00:20:48;;;;;;;8.07;5.47;;;;;;;24.83;100.00;100927.69;4957067;29;20028;-74
2022/07/22 00:23:34;;;;;;;7.38;5.43;;;;;;;25.07;100.00;100930.44;4957490;28;20035;-74
2022/07/22 00:26:20;;;;;;;7.28;5.10;;;;;;;25.04;100.00;100930.66;4956930;28;20057;-74
2022/07/22 00:29:06;;;;;;;7.47;5.35;;;;;;;24.97;100.00;100930.25;4944630;29;20133;-74
2022/07/22 00:31:52;;;;;;;7.43;5.30;;;;;;;25.12;100.00;100933.63;4957044;29;20055;-74
2022/07/22 00:34:37;;;;;;;7.45;5.47;;;;;;;24.89;100.00;100937.13;4957734;28;20046;-74
2022/07/22 00:37:23;;;;;;;8.63;6.05;;;;;;;24.98;100.00;100931.09;4956232;28;20034;-74
2022/07/22 00:40:10;;;;;;;9.73;5.40;;;;;;;24.88;100.00;100933.59;4957450;29;20045;-74
2022/07/22 00:42:55;;;;;;;8.63;5.75;;;;;;;24.94;100.00;100930.47;4944313;28;20034;-74
2022/07/22 00:45:41;;;;;;;9.50;5.32;;;;;;;25.07;100.00;100935.78;4957597;29;20029;-74
2022/07/22 00:48:27;;;;;;;8.20;5.32;;;;;;;24.87;100.00;100939.09;4944256;29;20122;-74
2022/07/22 00:51:13;;;;;;;7.70;5.47;;;;;;;24.87;100.00;100944.44;4956778;29;20407;-75
2022/07/22 00:54:00;;;;;;;6.97;5.47;;;;;;;24.66;100.00;100941.47;4943793;29;20038;-74
2022/07/22 00:56:47;;;;;;;6.82;5.20;;;;;;;24.87;100.00;100936.41;4956598;29;20035;-74
2022/07/22 00:59:33;;;;;;;8.45;5.28;;;;;;;24.85;100.00;100936.50;4944199;29;20030;-74
2022/07/22 01:02:19;;;;;;;7.80;5.30;;;;;;;24.89;100.00;100939.81;4955963;29;20470;-74
2022/07/22 01:05:06;;;;;;;11.93;5.60;;;;;;;24.76;100.00;100942.53;4956549;28;20085;-74
2022/07/22 01:07:51;;;;;;;6.43;5.25;;;;;;;24.87;100.00;100945.28;4956740;29;20042;-74
2022/07/22 01:10:37;;;;;;;7.85;5.32;;;;;;;24.57;100.00;100947.47;4956676;29;20066;-74
2022/07/22 01:13:23;;;;;;;8.98;5.70;;;;;;;24.75;100.00;100950.69;4956627;28;20042;-74
2022/07/22 01:16:11;;;;;;;8.60;5.40;;;;;;;24.76;100.00;100955.06;4956197;29;20106;-73
2022/07/22 01:18:56;;;;;;;11.30;5.72;;;;;;;25.00;100.00;100955.97;4956403;29;20026;-75
2022/07/22 01:21:42;;;;;;;9.07;5.43;;;;;;;24.87;100.00;100958.69;4955526;29;20085;-74
2022/07/22 01:24:28;;;;;;;8.82;5.40;;;;;;;24.97;100.00;100966.91;4957154;28;20038;-75
2022/07/22 01:27:14;;;;;;;11.35;5.63;;;;;;;24.66;100.00;100964.72;4955775;29;20083;-74
2022/07/22 01:30:00;;;;;;;6.65;5.22;;;;;;;24.96;100.00;100960.72;4956383;29;20027;-74
2022/07/22 01:32:46;;;;;;;11.88;5.55;;;;;;;24.82;100.00;100965.34;4955576;29;20028;-75
2022/07/22 01:35:31;;;;;;;8.75;5.50;;;;;;;24.60;100.00;100965.16;4955931;29;20031;-75
2022/07/22 01:38:18;;;;;;;9.18;5.68;;;;;;;24.25;100.00;100969.44;4956680;29;20027;-75
2022/07/22 01:41:04;;;;;;;8.90;5.75;;;;;;;24.34;100.00;100969.66;4956763;29;20114;-75
2022/07/22 01:43:50;;;;;;;8.35;5.60;;;;;;;24.59;100.00;100979.53;4956208;28;20093;-75
2022/07/22 01:46:36;;;;;;;11.77;5.95;;;;;;;24.23;100.00;100977.59;4942044;29;20042;-74
2022/07/22 01:49:22;;;;;;;15.45;6.03;;;;;;;24.39;100.00;100986.25;4941999;29;20248;-74
2022/07/22 01:52:08;;;;;;;12.52;6.60;;;;;;;24.42;100.00;100980.69;4956752;29;20365;-74
2022/07/22 01:54:53;;;;;;;13.60;7.07;;;;;;;24.32;100.00;100984.13;4956431;28;20143;-75
2022/07/22 01:57:39;;;;;;;10.57;6.82;;;;;;;23.62;100.00;100976.50;4956393;29;20061;-75
2022/07/22 02:00:25;;;;;;;11.65;7.10;;;;;;;23.83;100.00;100975.91;4955465;29;20073;-75
2022/07/22 02:03:11;;;;;;;13.63;7.10;;;;;;;24.05;100.00;100989.56;4954918;28;20449;-75
2022/07/22 02:05:57;;;;;;;21.65;8.02;;;;;;;23.36;100.00;100980.91;4956620;29;20032;-74
2022/07/22 02:08:43;;;;;;;23.73;7.97;;;;;;;23.64;100.00;100977.25;4956208;29;20034;-74
2022/07/22 02:11:29;;;;;;;21.42;8.77;;;;;;;23.80;100.00;100975.25;4956554;29;20027;-75
2022/07/22 02:14:14;;;;;;;18.40;8.15;;;;;;;23.56;100.00;100979.56;4942638;29;20028;-75
2022/07/22 02:17:00;;;;;;;22.98;7.65;;;;;;;23.52;100.00;100975.41;4942193;29;20055;-75
2022/07/22 02:19:46;;;;;;;21.58;8.88;;;;;;;23.90;100.00;100979.88;4956150;29;20041;-76
2022/07/22 02:22:32;;;;;;;21.77;8.25;;;;;;;23.23;100.00;100983.53;4956286;29;20035;-75
2022/07/22 02:25:18;;;;;;;21.35;8.32;;;;;;;22.97;100.00;100986.13;4955502;28;20034;-75
2022/07/22 02:28:04;;;;;;;24.48;8.38;;;;;;;23.20;100.00;100972.19;4955557;29;20031;-75
2022/07/22 02:30:50;;;;;;;20.63;7.82;;;;;;;23.39;100.00;100981.56;4956113;29;20398;-74
2022/07/22 02:33:36;;;;;;;23.85;8.68;;;;;;;23.43;100.00;100977.72;4955391;28;20049;-75
2022/07/22 02:36:21;;;;;;;19.45;7.85;;;;;;;23.44;100.00;100983.94;4955759;29;20047;-75
2022/07/22 02:39:07;;;;;;;24.27;7.85;;;;;;;23.58;100.00;100975.00;4955299;29;20027;-75
2022/07/22 02:41:53;;;;;;;16.45;7.25;;;;;;;23.42;100.00;100973.34;4955903;29;20424;-75
2022/07/22 02:44:39;;;;;;;15.65;6.63;;;;;;;23.20;100.00;100969.50;4955357;28;20078;-75
2022/07/22 02:47:24;;;;;;;14.05;6.40;;;;;;;23.16;100.00;100978.66;4956620;29;20038;-74
2022/07/22 02:50:10;;;;;;;15.40;6.95;;;;;;;23.31;100.00;100973.19;4941740;29;20098;-75
2022/07/22 02:52:56;;;;;;;14.50;6.38;;;;;;;23.39;100.00;100975.38;4955510;29;20042;-75
2022/07/22 02:55:42;;;;;;;11.18;5.95;;;;;;;23.51;100.00;100971.88;4955678;29;20054;-76
2022/07/22 02:58:28;;;;;;;10.27;6.55;;;;;;;23.16;100.00;100966.13;4956297;29;20035;-75
2022/07/22 03:01:13;;;;;;;10.63;5.80;;;;;;;23.34;100.00;100967.63;4956187;28;20039;-75
2022/07/22 03:03:59;;;;;;;10.18;6.25;;;;;;;23.33;100.00;100973.94;4958956;28;20039;-74
2022/07/22 03:06:45;;;;;;;11.52;6.10;;;;;;;23.52;100.00;100975.41;4960253;28;20043;-76
2022/07/22 03:09:31;;;;;;;11.88;6.40;;;;;;;23.57;100.00;100976.81;4958489;29;20461;-75
2022/07/22 03:12:17;;;;;;;14.57;6.55;;;;;;;23.24;100.00;100977.22;4959518;29;20042;-73
2022/07/22 03:15:03;;;;;;;11.02;6.47;;;;;;;23.31;100.00;100978.53;4959293;28;20038;-75
2022/07/22 03:17:49;;;;;;;14.13;6.88;;;;;;;23.30;100.00;100976.81;4959692;29;20027;-75
2022/07/22 03:20:35;;;;;;;8.30;6.28;;;;;;;23.29;100.00;100974.25;4961493;29;20023;-75
2022/07/22 03:23:21;;;;;;;10.05;6.47;;;;;;;23.67;100.00;100983.28;4960691;28;20454;-75
2022/07/22 03:26:07;;;;;;;16.17;6.93;;;;;;;23.49;100.00;100989.84;4959579;29;20051;-73
2022/07/22 03:28:53;;;;;;;13.55;6.90;;;;;;;23.59;100.00;100985.59;4960738;29;20134;-72
2022/07/22 03:31:39;;;;;;;9.18;6.97;;;;;;;23.72;100.00;100986.50;4961522;28;20464;-73
2022/07/22 03:34:24;;;;;;;11.82;7.25;;;;;;;23.71;100.00;100999.97;4961499;28;20473;-73
2022/07/22 03:37:11;;;;;;;10.38;6.82;;;;;;;23.77;100.00;100996.88;4949144;29;20042;-74
2022/07/22 03:39:56;;;;;;;11.18;6.60;;;;;;;24.03;100.00;101006.72;4960637;28;20024;-74
2022/07/22 03:42:42;;;;;;;9.65;6.80;;;;;;;24.03;100.00;101002.19;4961120;29;20118;-74
2022/07/22 03:45:28;;;;;;;13.50;6.85;;;;;;;24.11;100.00;101007.03;4946667;29;20043;-74
2022/07/22 03:48:14;;;;;;;10.20;6.90;;;;;;;24.12;100.00;101008.75;4961866;29;20028;-74
2022/07/22 03:51:00;;;;;;;9.32;6.68;;;;;;;24.13;100.00;101010.47;4962189;29;20101;-74
2022/07/22 03:53:46;;;;;;;12.82;6.63;;;;;;;23.93;100.00;101002.94;4959645;28;20062;-73
2022/07/22 03:56:31;;;;;;;10.13;6.70;;;;;;;24.33;100.00;101008.13;4959178;29;20027;-74
2022/07/22 03:59:17;;;;;;;11.52;6.40;;;;;;;24.09;100.00;101014.31;4958537;29;20023;-74
2022/07/22 04:02:04;;;;;;;11.50;6.13;;;;;;;24.07;100.00;101016.25;4958157;29;20042;-74
2022/07/22 04:04:49;;;;;;;12.75;6.72;;;;;;;24.06;100.00;101019.91;4959044;28;20035;-74
2022/07/22 04:07:35;;;;;;;13.63;7.07;;;;;;;24.27;100.00;101019.25;4946401;28;20027;-73
2022/07/22 04:10:21;;;;;;;20.02;8.25;;;;;;;24.12;100.00;101019.47;4958291;29;20042;-74
2022/07/22 04:13:07;;;;;;;14.15;8.20;;;;;;;23.42;100.00;101025.13;4957820;28;20477;-74
2022/07/22 04:15:53;;;;;;;12.60;8.55;;;;;;;23.54;100.00;101021.63;4944073;29;20479;-75
2022/07/22 04:18:38;;;;;;;23.25;8.27;;;;;;;23.48;100.00;101029.09;4957499;29;20039;-75
2022/07/22 04:21:24;;;;;;;15.13;8.13;;;;;;;23.52;100.00;101022.56;4957401;29;20027;-76
2022/07/22 04:24:10;;;;;;;14.35;7.70;;;;;;;23.49;100.00;101021.94;4958244;28;20071;-74
2022/07/22 04:26:56;;;;;;;17.70;8.70;;;;;;;23.88;100.00;101018.41;4957495;29;20054;-75
2022/07/22 04:29:42;;;;;;;16.73;8.20;;;;;;;23.79;100.00;101022.56;4958247;29;20031;-75
2022/07/22 04:32:27;;;;;;;20.45;8.75;;;;;;;23.88;100.00;101026.44;4957508;29;20019;-76
2022/07/22 04:35:13;;;;;;;16.85;8.68;;;;;;;23.67;100.00;101020.72;4956873;28;20027;-75
2022/07/22 04:37:59;;;;;;;16.13;8.07;;;;;;;23.85;100.00;101023.97;4956889;29;20042;-75
2022/07/22 04:40:45;;;;;;;13.93;7.95;;;;;;;23.85;100.00;101024.84;4957878;29;20366;-74
2022/07/22 04:43:31;;;;;;;20.85;8.30;;;;;;;24.10;100.00;101032.13;4956893;28;20038;-76
2022/07/22 04:46:16;;;;;;;14.48;7.85;;;;;;;24.14;100.00;101034.47;4957520;29;20031;-76
2022/07/22 04:49:02;;;;;;;16.52;8.10;;;;;;;24.34;100.00;101041.16;4957109;29;20023;-76
2022/07/22 04:51:48;;;;;;;19.48;7.97;;;;;;;24.14;100.00;101044.34;4956771;29;20023;-74
2022/07/22 04:54:35;;;;;;;12.75;7.43;;;;;;;24.46;100.00;101041.13;4957319;28;20031;-74
2022/07/22 04:57:21;;;;;;;14.50;7.70;;;;;;;24.72;100.00;101050.94;4958764;29;20031;-75
2022/07/22 05:00:07;;;;;;;14.57;7.43;;;;;;;24.56;100.00;101041.34;4960264;29;20102;-74
2022/07/22 05:02:53;;;;;;;13.13;7.78;;;;;;;24.77;100.00;101051.47;4957172;29;20027;-75
2022/07/22 05:05:39;;;;;;;15.80;7.30;;;;;;;25.06;100.00;101046.69;4956292;29;20446;-74
2022/07/22 05:08:25;;;;;;;14.10;7.65;;;;;;;25.14;100.00;101046.97;4955924;29;20027;-75
2022/07/22 05:11:11;;;;;;;20.92;8.32;;;;;;;25.30;100.00;101044.94;4957279;29;20041;-75
2022/07/22 05:13:57;;;;;;;22.67;8.63;;;;;;;25.31;100.00;101047.50;4956267;28;20039;-74
2022/07/22 05:16:43;;;;;;;15.93;7.88;;;;;;;25.32;100.00;101061.78;4943833;29;20035;-74
2022/07/22 05:19:29;;;;;;;20.60;7.72;;;;;;;25.50;100.00;101058.63;4956165;29;20027;-74
2022/07/22 05:22:15;;;;;;;16.25;7.20;;;;;;;25.46;100.00;101065.19;4957243;29;20114;-75
2022/07/22 05:25:01;;;;;;;16.02;6.72;;;;;;;25.60;100.00;101064.16;4955618;28;20031;-75
2022/07/22 05:27:52;;;;;;;15.40;5.85;;;;;;;25.80;100.00;101064.38;4956693;29;20488;-74
2022/07/22 05:30:38;;;;;;;11.15;5.82;;;;;;;26.00;100.00;101069.13;4956451;29;20031;-75
2022/07/22 05:33:24;;;;;;;19.73;6.07;;;;;;;25.98;100.00;101071.09;4956521;28;20042;-74
2022/07/22 05:36:10;;;;;;;14.20;5.25;;;;;;;26.15;99.52;101069.81;4957050;29;20035;-73
2022/07/22 05:38:56;;;;;;;14.50;5.70;;;;;;;26.36;97.64;101077.09;4955863;29;20031;-75
2022/07/22 05:41:41;;;;;;;17.30;5.47;;;;;;;26.47;93.13;101073.56;4956263;29;20434;-75
2022/07/22 05:44:27;;;;;;;9.70;4.88;;;;;;;26.52;94.40;101066.84;4956407;28;20094;-74
2022/07/22 05:47:13;;;;;;;9.68;4.75;;;;;;;26.57;86.42;101079.94;4956009;29;20027;-74
2022/07/22 05:49:59;;;;;;;11.65;4.68;;;;;;;26.76;84.99;101077.56;4956627;29;20031;-75
2022/07/22 05:52:44;;;;;;;10.35;4.78;;;;;;;26.64;85.63;101081.22;4956668;29;20027;-75
2022/07/22 05:55:30;;;;;;;9.27;4.55;;;;;;;26.70;84.66;101078.91;4956283;28;20031;-74
2022/07/22 05:58:16;;;;;;;15.95;4.38;;;;;;;27.05;82.02;101085.03;4955805;29;20027;-74
2022/07/22 06:01:02;;;;;;;10.13;5.10;;;;;;;27.02;84.51;101076.34;4956958;29;20353;-75
2022/07/22 06:03:48;;;;;;;7.95;4.70;;;;;;;27.23;77.97;101075.53;4955621;28;20154;-75
2022/07/22 06:06:34;;;;;;;12.70;4.43;;;;;;;27.60;76.03;101078.75;4955875;29;20101;-74
2022/07/22 06:09:20;;;;;;;14.13;5.20;;;;;;;27.46;75.50;101076.34;4956044;29;20027;-75
2022/07/22 06:12:06;;;;;;;10.60;3.13;;;;;;;27.66;66.39;101078.25;4955848;29;20414;-74
2022/07/22 06:14:52;;;;;;;12.25;4.70;;;;;;;27.75;67.81;101074.78;4955993;28;20498;-75
2022/07/22 06:17:37;;;;;;;12.98;5.03;;;;;;;27.68;67.18;101080.84;4956214;29;20123;-74
2022/07/22 06:20:23;;;;;;;12.93;4.20;;;;;;;27.80;61.05;101080.66;4955471;29;20028;-75
2022/07/22 06:23:09;;;;;;;8.88;3.58;;;;;;;27.83;55.88;101076.88;4955657;29;20097;-75
2022/07/22 06:25:55;;;;;;;12.68;3.53;;;;;;;27.90;54.81;101084.34;4955796;29;20055;-74
2022/07/22 06:28:41;;;;;;;11.00;4.53;;;;;;;27.78;53.65;101079.06;4955990;29;20031;-75
2022/07/22 06:31:26;;;;;;;12.65;3.67;;;;;;;27.98;52.43;101081.84;4955304;29;20046;-75
2022/07/22 06:34:12;;;;;;;9.48;3.55;;;;;;;28.08;52.30;101080.09;4956183;28;20042;-75
2022/07/22 06:36:58;;;;;;;15.20;4.13;;;;;;;28.18;51.28;101077.47;4959115;29;20097;-75
2022/07/22 06:39:46;;;;;;;11.20;4.18;;;;;;;28.05;50.94;101080.38;4959639;29;20027;-76
2022/07/22 06:42:32;;;;;;;13.63;4.10;;;;;;;28.06;49.99;101081.19;4959711;29;20031;-75
2022/07/22 06:45:18;;;;;;;10.50;3.47;;;;;;;28.45;49.33;101088.66;4958696;28;20485;-75
2022/07/22 06:48:04;;;;;;;12.52;3.90;;;;;;;28.62;48.14;101096.13;4959141;29;20042;-75
2022/07/22 06:50:49;;;;;;;12.38;3.58;;;;;;;28.49;47.92;101085.53;4958123;29;20445;-75
2022/07/22 06:53:36;;;;;;;9.68;2.63;;;;;;;28.53;46.04;101092.38;4958612;28;20109;-75
2022/07/22 06:56:21;;;;;;;10.38;3.42;;;;;;;28.93;46.92;101090.63;4958035;29;20059;-75
2022/07/22 06:59:07;;;;;;;15.25;3.00;;;;;;;29.07;46.82;101101.09;4959778;29;20094;-75
2022/07/22 07:01:53;;;;;;;8.00;3.08;;;;;;;29.11;47.35;101094.44;4945225;29;20426;-75
2022/07/22 07:04:39;;;;;;;9.00;3.20;;;;;;;29.47;46.81;101095.69;4959311;28;20038;-75
2022/07/22 07:07:25;;;;;;;7.55;3.03;;;;;;;29.19;45.77;101107.25;4959137;29;20079;-75
2022/07/22 07:10:12;;;;;;;10.20;2.90;;;;;;;29.12;44.06;101103.38;4958488;29;20370;-75
2022/07/22 07:12:59;;;;;;;14.70;2.67;;;;;;;29.06;44.27;101107.50;4959011;29;20114;-75
2022/07/22 07:15:44;;;;;;;5.07;2.20;;;;;;;28.92;43.90;101113.19;4958422;29;20481;-75
2022/07/22 07:18:30;;;;;;;8.73;2.65;;;;;;;28.98;43.54;101111.81;4958451;29;20067;-74
2022/07/22 07:21:16;;;;;;;12.85;3.38;;;;;;;29.13;43.06;101111.34;4958300;29;20085;-75
2022/07/22 07:24:02;;;;;;;7.70;2.58;;;;;;;29.23;42.97;101114.09;4945444;29;20043;-75
2022/07/22 07:26:48;;;;;;;12.55;2.95;;;;;;;29.41;42.29;101110.59;4958189;28;20047;-75
2022/07/22 07:29:34;;;;;;;10.50;3.50;;;;;;;29.36;41.79;101123.66;4958755;29;20092;-74
2022/07/22 07:32:19;;;;;;;9.20;2.42;;;;;;;29.38;41.80;101120.84;4957954;29;20019;-74
2022/07/22 07:35:06;;;;;;;7.88;2.35;;;;;;;29.97;41.42;101124.44;4957882;28;20027;-76
2022/07/22 07:37:53;;;;;;;6.53;2.13;;;;;;;30.23;40.21;101117.50;4944416;29;20118;-75
2022/07/22 07:40:39;;;;;;;12.63;3.08;;;;;;;30.24;39.47;101116.50;4958285;29;20536;-76
2022/07/22 07:43:25;;;;;;;8.10;2.38;;;;;;;30.48;39.29;101116.91;4944462;28;20027;-75
2022/07/22 07:46:11;;;;;;;5.00;1.80;;;;;;;30.58;37.71;101117.75;4958013;28;20073;-74
2022/07/22 07:48:56;;;;;;;6.82;2.28;;;;;;;30.31;38.61;101118.50;4958076;29;20466;-75
2022/07/22 07:51:42;;;;;;;9.00;2.40;;;;;;;30.67;38.92;101120.47;4957434;29;20038;-75
2022/07/22 07:54:28;;;;;;;10.35;2.88;;;;;;;30.77;38.41;101123.16;4959006;28;20094;-75
2022/07/22 07:57:14;;;;;;;5.95;2.35;;;;;;;31.70;37.83;101118.53;4958070;29;20034;-74
2022/07/22 08:00:00;;;;;;;9.07;2.00;;;;;;;31.49;37.38;101126.06;4957626;29;20119;-75
2022/07/22 08:02:46;;;;;;;4.63;2.30;;;;;;;31.81;37.09;101130.03;4957419;29;20476;-75
2022/07/22 08:05:32;;;;;;;7.72;2.20;;;;;;;32.12;39.24;101127.81;4957614;29;20132;-75
2022/07/22 08:08:18;;;;;;;5.60;2.20;;;;;;;32.14;38.00;101121.22;4957339;29;20444;-74
2022/07/22 08:11:04;;;;;;;9.40;2.20;;;;;;;32.49;36.59;101134.81;4957473;29;20019;-74
2022/07/22 08:13:50;;;;;;;4.18;1.70;;;;;;;32.64;35.18;101132.38;4957449;28;20034;-76
2022/07/22 08:16:36;;;;;;;8.02;2.60;;;;;;;32.55;34.22;101131.47;4958080;29;20035;-74
2022/07/22 08:19:21;;;;;;;5.93;1.90;;;;;;;32.99;33.61;101132.31;4957612;29;20504;-74
2022/07/22 08:22:08;;;;;;;9.88;2.10;;;;;;;33.21;34.11;101132.63;4957374;29;20019;-76
2022/07/22 08:24:54;;;;;;;6.70;2.30;;;;;;;33.63;32.46;101138.13;4957198;28;20058;-76
2022/07/22 08:27:39;;;;;;;5.18;1.95;;;;;;;34.03;32.89;101127.38;4957361;29;20122;-75
2022/07/22 08:30:28;;;;;;;4.43;2.20;;;;;;;33.78;33.03;101131.00;4958115;29;20174;-75
2022/07/22 08:33:14;;;;;;;3.97;1.98;;;;;;;33.97;32.50;101131.63;4957497;28;20027;-75
2022/07/22 08:35:59;;;;;;;5.28;2.08;;;;;;;33.84;31.55;101136.69;4958527;28;20043;-75
2022/07/22 08:38:45;;;;;;;6.63;2.20;;;;;;;34.42;31.04;101126.59;4957523;29;20031;-75
2022/07/22 08:41:35;;;;;;;6.30;1.90;;;;;;;34.43;30.85;101132.91;4958541;28;20094;-76
2022/07/22 08:44:21;;;;;;;7.88;2.00;;;;;;;34.22;31.77;101140.66;4957243;28;20038;-75
2022/07/22 08:47:07;;;;;;;6.75;2.10;;;;;;;34.46;30.44;101133.41;4957043;29;20458;-75
2022/07/22 08:49:53;;;;;;;15.27;2.35;;;;;;;34.48;29.48;101135.97;4957983;28;20027;-75
2022/07/22 08:52:39;;;;;;;6.53;1.95;;;;;;;33.98;29.61;101130.59;4957344;29;20034;-75
2022/07/22 08:55:25;;;;;;;5.13;2.00;;;;;;;33.76;31.95;101130.34;4943032;29;20106;-75
2022/07/22 08:58:11;;;;;;;5.85;3.42;;;;;;;33.95;32.40;101140.97;4956624;28;20033;-75
2022/07/22 09:01:09;;;;;;;9.13;3.80;;;;;;;34.49;31.25;101132.22;4957964;28;20486;-75
2022/07/22 09:03:56;;;;;;;8.57;3.70;;;;;;;34.13;31.83;101130.78;4957785;28;20118;-76
2022/07/22 09:06:47;;;;;;;21.65;9.05;;;;;;;34.60;31.99;101138.16;4956536;29;20440;-75
2022/07/22 09:09:34;;;;;;;8.57;4.57;;;;;;;34.61;31.76;101137.16;4956808;29;20103;-74
2022/07/22 09:12:22;;;;;;;5.90;2.30;;;;;;;34.29;31.52;101128.94;4956671;29;20032;-75
2022/07/22 09:15:08;;;;;;;6.47;2.60;;;;;;;34.82;31.35;101133.91;4956069;28;20114;-76
2022/07/22 09:17:54;;;;;;;7.72;1.90;;;;;;;34.33;29.66;101133.06;4942877;29;20468;-75
2022/07/22 09:20:40;;;;;;;2.22;1.80;;;;;;;34.87;29.32;101132.38;4956033;29;20027;-76
2022/07/22 09:23:26;;;;;;;3.25;1.58;;;;;;;34.31;29.88;101123.38;4956409;28;20484;-76
2022/07/22 09:26:30;;;;;;;7.35;2.22;;;;;;;34.53;29.65;101125.41;4943195;28;20054;-75
2022/07/22 09:29:18;;;;;;;4.30;2.30;;;;;;;34.56;30.35;101123.19;4955488;29;20167;-77
2022/07/22 09:32:06;;;;;;;4.75;1.95;;;;;;;34.45;29.98;101125.41;4956140;29;20075;-77
2022/07/22 09:35:02;;;;;;;3.35;2.08;;;;;;;34.59;29.62;101130.19;4955350;28;20436;-75
2022/07/22 09:37:48;;;;;;;2.70;1.80;;;;;;;34.33;29.45;101124.91;4955779;29;20031;-76
2022/07/22 09:40:37;;;;;;;4.10;2.60;;;;;;;34.16;30.11;101114.13;4956611;29;20027;-75
2022/07/22 09:43:23;;;;;;;4.20;2.22;;;;;;;33.97;30.39;101120.75;4942951;28;20027;-76
2022/07/22 09:46:09;;;;;;;3.55;2.00;;;;;;;34.62;29.81;101127.97;4957091;29;20430;-76
2022/07/22 09:48:55;;;;;;;5.32;2.35;;;;;;;34.12;29.30;101113.59;4956208;29;20085;-74
2022/07/22 09:51:41;;;;;;;3.15;2.13;;;;;;;33.98;29.91;101122.44;4956317;29;20086;-76
2022/07/22 09:54:29;;;;;;;3.08;2.50;;;;;;;34.21;30.32;101125.34;4955864;28;20031;-74
2022/07/22 09:57:15;;;;;;;3.33;2.28;;;;;;;34.39;29.16;101129.66;4956736;28;20484;-75
2022/07/22 10:00:01;;;;;;;6.95;2.20;;;;;;;34.26;29.87;101117.53;4955797;29;20031;-75
2022/07/22 10:02:49;;;;;;;3.60;1.77;;;;;;;33.66;30.08;101121.47;4955294;29;20118;-75
2022/07/22 10:05:38;;;;;;;4.85;1.90;;;;;;;33.55;29.10;101121.78;4955721;29;20345;-76
2022/07/22 10:08:29;;;;;;;8.77;2.10;;;;;;;33.63;29.01;101124.53;4955683;29;20102;-75
2022/07/22 10:11:16;;;;;;;2.75;2.30;;;;;;;34.39;29.18;101124.22;4946024;29;20027;-75
2022/07/22 10:14:02;;;;;;;6.57;2.30;;;;;;;33.94;28.37;101128.38;4946794;29;20034;-75
2022/07/22 10:16:48;;;;;;;3.97;2.08;;;;;;;34.07;28.80;101118.72;4959532;29;20131;-75
2022/07/22 10:19:35;;;;;;;3.03;1.92;;;;;;;34.00;29.29;101123.09;4960355;29;20118;-76
2022/07/22 10:22:39;;;;;;;4.43;2.00;;;;;;;34.21;29.54;101114.47;4959998;29;20114;-75
2022/07/22 10:25:30;;;;;;;2.47;1.85;;;;;;;33.89;29.94;101115.28;4959134;28;20039;-75
2022/07/22 10:28:26;;;;;;;5.72;2.50;;;;;;;34.38;30.20;101117.06;4959646;29;20454;-75
2022/07/22 10:31:23;;;;;;;2.03;1.80;;;;;;;33.98;30.31;101117.00;4932119;29;20027;-76
2022/07/22 10:34:09;;;;;;;5.57;1.90;;;;;;;34.09;30.13;101107.66;4959153;28;20425;-75
2022/07/22 10:36:55;;;;;;;5.25;1.90;;;;;;;34.05;30.06;101111.75;4946386;29;20042;-76
2022/07/22 10:40:22;;;;;;;5.00;2.28;;;;;;;33.87;31.02;101111.03;4959575;29;20446;-75
2022/07/22 10:43:16;;;;;;;3.67;2.03;;;;;;;33.82;31.35;101102.50;4959165;29;20196;-75
2022/07/22 10:46:06;;;;;;;3.75;1.90;;;;;;;33.67;30.94;101104.16;4959459;29;20413;-75
2022/07/22 10:48:52;;;;;;;3.88;1.98;;;;;;;33.42;31.03;101102.34;4959135;29;20031;-75
2022/07/22 10:51:38;;;;;;;2.00;1.80;;;;;;;34.02;30.43;101098.47;4958562;29;20031;-76
2022/07/22 10:54:23;;;;;;;6.05;2.38;;;;;;;34.26;31.29;101103.94;4959560;28;20432;-75
2022/07/22 10:57:10;;;;;;;3.90;1.80;;;;;;;33.60;30.62;101103.09;4959692;29;20027;-76
2022/07/22 10:59:56;;;;;;;6.35;2.22;;;;;;;33.72;31.24;101093.63;4961401;29;20065;-76
2022/07/22 11:02:42;;;;;;;3.92;2.00;;;;;;;34.64;30.36;101097.84;4932009;29;20027;-75
2022/07/22 11:05:31;;;;;;;4.80;2.63;;;;;;;34.63;30.45;101083.38;4958594;28;20035;-75
2022/07/22 11:08:19;;;;;;;5.45;2.42;;;;;;;34.32;30.57;101086.97;4958899;29;20031;-75
2022/07/22 11:11:05;;;;;;;8.00;2.38;;;;;;;34.33;30.79;101083.22;4958812;29;20107;-76
2022/07/22 11:13:50;;;;;;;7.88;2.40;;;;;;;34.79;30.59;101090.66;4958473;28;20027;-76
2022/07/22 11:16:36;;;;;;;4.85;1.92;;;;;;;34.39;31.11;101090.72;4959117;29;20042;-77
2022/07/22 11:19:24;;;;;;;7.82;2.22;;;;;;;35.06;30.26;101085.69;4959156;29;20035;-75
2022/07/22 11:22:13;;;;;;;3.47;2.00;;;;;;;34.72;30.03;101087.75;4943688;29;20035;-76
2022/07/22 11:25:10;;;;;;;4.78;2.13;;;;;;;34.49;30.40;101084.06;4958263;28;20066;-75
2022/07/22 11:27:57;;;;;;;5.00;2.20;;;;;;;35.06;30.11;101077.53;4957525;29;20070;-76
2022/07/22 11:30:43;;;;;;;4.55;1.90;;;;;;;34.48;29.99;101076.06;4959094;29;20469;-76
2022/07/22 11:33:29;;;;;;;5.53;2.20;;;;;;;34.71;30.07;101079.78;4958492;28;20118;-75
2022/07/22 11:36:15;;;;;;;4.65;3.03;;;;;;;34.97;29.97;101072.25;4959109;29;20345;-75
2022/07/22 11:39:02;;;;;;;4.20;2.17;;;;;;;35.02;30.06;101078.91;4944993;29;20031;-75
2022/07/22 11:41:49;;;;;;;3.15;2.05;;;;;;;35.31;29.42;101074.72;4957994;29;20050;-76
2022/07/22 11:44:38;;;;;;;4.40;2.10;;;;;;;35.00;29.70;101069.19;4957316;28;20027;-74
2022/07/22 11:47:24;;;;;;;4.15;2.25;;;;;;;34.98;30.01;101068.50;4945554;29;20039;-76
2022/07/22 11:50:09;;;;;;;7.63;2.22;;;;;;;34.66;30.08;101066.69;4958768;29;20420;-76
2022/07/22 11:52:55;;;;;;;4.38;2.45;;;;;;;34.87;30.05;101063.44;4944914;29;20031;-75
2022/07/22 11:55:41;;;;;;;6.75;2.28;;;;;;;35.10;29.68;101056.22;4945165;29;20106;-75
2022/07/22 11:58:34;;;;;;;4.60;2.00;;;;;;;35.58;29.71;101058.75;4958322;29;20027;-75
2022/07/22 12:01:21;;;;;;;4.38;2.05;;;;;;;35.91;29.17;101052.06;4958080;29;20446;-76
2022/07/22 12:04:08;;;;;;;3.42;2.03;;;;;;;35.83;28.89;101054.03;4944769;29;20027;-75
2022/07/22 12:06:54;;;;;;;3.60;1.90;;;;;;;36.36;28.63;101046.59;4957224;29;20066;-75
2022/07/22 12:09:42;;;;;;;3.92;2.08;;;;;;;35.77;28.70;101038.38;4957792;29;20362;-75
2022/07/22 12:12:41;;;;;;;2.97;2.10;;;;;;;35.59;29.07;101054.16;4943867;29;20019;-75
2022/07/22 12:15:27;;;;;;;3.25;1.92;;;;;;;36.21;28.51;101056.63;4957399;28;20114;-75
2022/07/22 12:18:20;;;;;;;6.63;2.30;;;;;;;36.31;27.80;101043.59;4958381;29;20023;-76
2022/07/22 12:21:07;;;;;;;5.43;2.20;;;;;;;36.43;27.91;101036.63;4956375;29;20034;-76
2022/07/22 12:23:56;;;;;;;4.75;2.50;;;;;;;36.63;27.65;101040.53;4958070;28;20027;-76
2022/07/22 12:26:47;;;;;;;5.40;2.10;;;;;;;35.99;28.11;101034.81;4956941;29;20340;-76
2022/07/22 12:29:36;;;;;;;6.75;2.40;;;;;;;35.95;27.67;101028.84;4957243;29;20031;-75
2022/07/22 12:32:21;;;;;;;7.90;2.17;;;;;;;35.87;28.04;101022.63;4956389;29;20078;-76
2022/07/22 12:35:07;;;;;;;6.07;2.40;;;;;;;36.02;27.97;101016.19;4956720;28;20053;-76
2022/07/22 12:37:53;;;;;;;6.47;2.10;;;;;;;35.14;28.74;101019.41;4957568;29;20031;-76
2022/07/22 12:40:39;;;;;;;10.30;2.40;;;;;;;35.39;29.05;101012.84;4957086;29;20066;-76
2022/07/22 12:43:26;;;;;;;13.13;2.35;;;;;;;35.26;29.03;101004.34;4956251;28;20033;-76
2022/07/22 12:46:12;;;;;;;4.25;2.38;;;;;;;35.95;28.78;101001.56;4957721;29;20174;-76
2022/07/22 12:49:00;;;;;;;6.30;2.30;;;;;;;36.49;27.97;101002.28;4958112;29;20027;-76